Terminal Aerodrome Forecast
Issued by NWS

Home | Current Version | Previous Version | Graphics & Text | Print | Product List | Glossary On
Versions: 1 2 3 4 5 6 7 8 9 10 11 12
000
FTUS43 KMPX 311700
TAFRWF
TAF
KRWF 311737Z 3118/0118 31007KT P6SM SCT050
     FM010100 VRB03KT P6SM SKC
     FM011500 28005KT P6SM SCT050=

USA.gov is the U.S. government's official web portal to all federal, state and local government web resources and services.